createdAt,value
2022-12-27T00:00:54.808Z,1.20
2022-12-27T00:03:41.382Z,1.20
2022-12-27T00:06:28.302Z,1.20
2022-12-27T00:09:13.949Z,1.20
2022-12-27T00:12:00.152Z,1.20
2022-12-27T00:14:45.606Z,1.20
2022-12-27T00:17:31.343Z,1.20
2022-12-27T00:20:17.086Z,1.30
2022-12-27T00:23:02.859Z,1.20
2022-12-27T00:25:48.355Z,1.20
2022-12-27T00:28:35.182Z,1.20
2022-12-27T00:31:22.634Z,1.20
2022-12-27T00:34:08.536Z,1.20
2022-12-27T00:36:54.175Z,1.20
2022-12-27T00:39:39.898Z,1.30
2022-12-27T00:42:25.503Z,1.20
2022-12-27T00:45:11.515Z,1.30
2022-12-27T00:47:57.185Z,1.30
2022-12-27T00:50:44.650Z,1.30
2022-12-27T00:53:32.464Z,1.30
2022-12-27T00:56:26.147Z,1.30
2022-12-27T00:59:12.613Z,1.30
2022-12-27T01:01:58.220Z,1.30
2022-12-27T01:04:44.087Z,1.30
2022-12-27T01:07:29.671Z,1.30
2022-12-27T01:10:15.569Z,1.30
2022-12-27T01:13:03.682Z,1.30
2022-12-27T01:15:49.230Z,1.30
2022-12-27T01:18:34.768Z,1.30
2022-12-27T01:21:23.298Z,1.30
2022-12-27T01:24:08.897Z,1.30
2022-12-27T01:26:54.448Z,1.30
2022-12-27T01:29:40.078Z,1.30
2022-12-27T01:32:25.676Z,1.40
2022-12-27T01:35:11.063Z,1.30
2022-12-27T01:37:56.515Z,1.40
2022-12-27T01:40:42.239Z,1.40
2022-12-27T01:43:38.983Z,1.40
2022-12-27T01:46:24.568Z,1.40
2022-12-27T01:49:12.358Z,1.40
2022-12-27T01:51:58.808Z,1.40
2022-12-27T01:54:44.844Z,1.40
2022-12-27T01:57:30.804Z,1.40
2022-12-27T02:00:16.922Z,1.40
2022-12-27T02:03:06.191Z,1.40
2022-12-27T02:05:52.488Z,1.50
2022-12-27T02:09:22.819Z,1.50
2022-12-27T02:12:10.699Z,1.50
2022-12-27T02:14:56.689Z,1.50
2022-12-27T02:17:42.150Z,1.50
2022-12-27T02:20:52.985Z,1.50
2022-12-27T02:24:32.397Z,1.50
2022-12-27T02:28:11.285Z,1.50
2022-12-27T02:31:08.249Z,1.50
2022-12-27T02:33:54.821Z,1.50
2022-12-27T02:36:43.227Z,1.60
2022-12-27T02:39:34.928Z,1.60
2022-12-27T02:42:20.653Z,1.60
2022-12-27T02:45:19.887Z,1.60
2022-12-27T02:48:10.920Z,1.60
2022-12-27T02:52:09.831Z,1.60
2022-12-27T02:55:41.826Z,1.60
2022-12-27T02:59:04.184Z,1.60
2022-12-27T03:02:30.016Z,1.60
2022-12-27T03:05:57.221Z,1.60
2022-12-27T03:09:34.732Z,1.60
2022-12-27T03:13:07.844Z,1.70
2022-12-27T03:16:21.470Z,1.70
2022-12-27T03:19:23.587Z,1.70
2022-12-27T03:22:11.380Z,1.70
2022-12-27T03:24:58.079Z,1.70
2022-12-27T03:27:45.377Z,1.70
2022-12-27T03:30:31.093Z,1.80
2022-12-27T03:33:16.518Z,1.80
2022-12-27T03:36:21.114Z,1.80
2022-12-27T03:39:26.391Z,1.80
2022-12-27T03:42:26.988Z,1.80
2022-12-27T03:45:12.656Z,1.80
2022-12-27T03:48:05.821Z,1.80
2022-12-27T03:50:57.935Z,1.80
2022-12-27T03:53:46.113Z,1.80
2022-12-27T03:56:32.320Z,1.80
2022-12-27T03:59:18.150Z,1.80
2022-12-27T04:02:05.473Z,1.80
2022-12-27T04:04:52.593Z,1.90
2022-12-27T04:07:38.101Z,1.90
2022-12-27T04:10:23.637Z,1.90
2022-12-27T04:13:09.311Z,1.90
2022-12-27T04:15:54.781Z,1.90
2022-12-27T04:18:40.496Z,1.90
2022-12-27T04:21:25.992Z,1.90
2022-12-27T04:24:11.727Z,2.00
2022-12-27T04:26:57.078Z,1.90
2022-12-27T04:29:42.586Z,2.00
2022-12-27T04:32:28.218Z,2.00
2022-12-27T04:35:13.595Z,2.00
2022-12-27T04:37:59.283Z,2.00
2022-12-27T04:40:44.755Z,2.00
2022-12-27T04:43:30.166Z,2.00
2022-12-27T04:46:24.844Z,2.00
2022-12-27T04:49:26.125Z,2.10
2022-12-27T04:52:19.561Z,2.10
2022-12-27T04:55:28.755Z,2.10
2022-12-27T04:58:14.581Z,2.10
2022-12-27T05:01:06.700Z,2.10
2022-12-27T05:03:56.420Z,2.10
2022-12-27T05:06:41.803Z,2.20
2022-12-27T05:09:27.285Z,2.20
2022-12-27T05:12:12.794Z,2.20
2022-12-27T05:14:58.146Z,2.20
2022-12-27T05:17:43.801Z,2.20
2022-12-27T05:20:29.161Z,2.20
2022-12-27T05:23:14.579Z,2.20
2022-12-27T05:26:00.165Z,2.20
2022-12-27T05:28:45.747Z,2.30
2022-12-27T05:31:31.762Z,2.30
2022-12-27T05:34:17.515Z,2.30
2022-12-27T05:37:03.383Z,2.30
2022-12-27T05:39:48.701Z,2.30
2022-12-27T05:42:34.691Z,2.30
2022-12-27T05:45:20.770Z,2.30
2022-12-27T05:48:06.611Z,2.40
2022-12-27T05:50:52.054Z,2.40
2022-12-27T05:53:38.208Z,2.40
2022-12-27T05:56:24.050Z,2.40
2022-12-27T05:59:09.854Z,2.50
2022-12-27T06:01:55.254Z,2.50
2022-12-27T06:04:41.210Z,2.50
2022-12-27T06:07:26.494Z,2.60
2022-12-27T06:10:12.675Z,2.60
2022-12-27T06:13:00.826Z,2.60
2022-12-27T06:15:46.172Z,2.60
2022-12-27T06:18:36.083Z,2.60
2022-12-27T06:21:22.079Z,2.60
2022-12-27T06:24:08.280Z,2.60
2022-12-27T06:27:12.545Z,2.60
2022-12-27T06:37:20.438Z,2.70
2022-12-27T06:40:43.544Z,2.70
2022-12-27T06:43:48.022Z,2.70
2022-12-27T06:46:33.999Z,2.80
2022-12-27T06:49:57.772Z,2.80
2022-12-27T06:52:43.717Z,2.90
2022-12-27T06:55:29.231Z,3.00
2022-12-27T06:58:33.346Z,3.00
2022-12-27T07:01:40.644Z,3.10
2022-12-27T07:04:26.551Z,3.10
2022-12-27T07:07:49.704Z,3.10
2022-12-27T07:10:54.183Z,3.20
2022-12-27T07:14:23.602Z,3.30
2022-12-27T07:17:46.855Z,3.30
2022-12-27T07:20:32.414Z,3.40
2022-12-27T07:23:19.526Z,3.40
2022-12-27T07:26:09.277Z,3.40
2022-12-27T07:29:20.997Z,3.40
2022-12-27T07:32:25.040Z,3.40
2022-12-27T07:35:29.043Z,3.50
2022-12-27T07:45:55.227Z,3.60
2022-12-27T07:49:00.073Z,3.70
2022-12-27T07:52:04.685Z,3.70
2022-12-27T07:55:27.720Z,3.80
2022-12-27T08:01:20.459Z,3.80
2022-12-27T08:04:25.058Z,3.90
2022-12-27T08:07:20.145Z,4.00
2022-12-27T08:10:06.734Z,4.00
2022-12-27T08:16:21.080Z,4.10
2022-12-27T08:19:08.632Z,4.10
2022-12-27T08:21:54.465Z,4.10
2022-12-27T08:24:39.952Z,4.20
2022-12-27T08:27:25.653Z,4.20
2022-12-27T08:30:11.969Z,4.30
2022-12-27T08:32:57.602Z,4.30
2022-12-27T08:35:54.336Z,4.40
2022-12-27T08:38:40.353Z,4.40
2022-12-27T08:41:26.181Z,4.50
2022-12-27T08:44:12.646Z,4.50
2022-12-27T08:46:58.647Z,4.60
2022-12-27T08:49:44.256Z,4.60
2022-12-27T08:52:29.685Z,4.60
2022-12-27T08:55:15.371Z,4.70
2022-12-27T08:58:09.348Z,4.70
2022-12-27T09:01:10.689Z,4.70
2022-12-27T09:03:56.459Z,4.80
2022-12-27T09:06:42.016Z,4.80
2022-12-27T09:09:27.628Z,4.80
2022-12-27T09:12:13.118Z,4.90
2022-12-27T09:14:58.750Z,4.90
2022-12-27T09:17:44.224Z,5.00
2022-12-27T09:20:29.752Z,5.10
2022-12-27T09:23:15.257Z,5.10
2022-12-27T09:26:13.655Z,5.10
2022-12-27T09:29:00.118Z,5.10
2022-12-27T09:31:45.732Z,5.20
2022-12-27T09:34:31.228Z,5.30
2022-12-27T09:37:16.981Z,5.30
2022-12-27T09:40:02.719Z,5.40
2022-12-27T09:43:22.319Z,5.40
2022-12-27T09:46:19.734Z,5.40
2022-12-27T09:49:12.691Z,5.40
2022-12-27T09:52:27.787Z,5.40
2022-12-27T09:55:41.831Z,5.50
2022-12-27T09:58:47.365Z,5.50
2022-12-27T10:01:36.532Z,5.50
2022-12-27T10:04:22.973Z,5.60
2022-12-27T10:07:56.832Z,5.60
2022-12-27T10:11:23.348Z,5.70
2022-12-27T10:14:27.230Z,5.70
2022-12-27T10:18:08.961Z,5.80
2022-12-27T10:21:25.686Z,5.80
2022-12-27T10:24:34.052Z,5.80
2022-12-27T10:27:28.386Z,5.80
2022-12-27T10:30:19.492Z,5.80
2022-12-27T10:33:05.222Z,5.80
2022-12-27T10:35:50.601Z,5.90
2022-12-27T10:38:36.166Z,5.90
2022-12-27T10:41:50.448Z,5.90
2022-12-27T10:44:35.878Z,6.00
2022-12-27T10:47:26.444Z,6.00
2022-12-27T10:50:13.848Z,6.00
2022-12-27T10:52:59.625Z,6.10
2022-12-27T10:55:45.112Z,6.10
2022-12-27T10:58:56.561Z,6.20
2022-12-27T11:01:48.172Z,6.20
2022-12-27T11:04:36.330Z,6.30
2022-12-27T11:07:21.773Z,6.30
2022-12-27T11:10:36.018Z,6.30
2022-12-27T11:13:21.523Z,6.40
2022-12-27T11:16:29.078Z,6.50
2022-12-27T11:19:26.085Z,6.50
2022-12-27T11:22:11.498Z,6.50
2022-12-27T11:24:59.904Z,6.50
2022-12-27T11:27:51.618Z,6.50
2022-12-27T11:31:06.252Z,6.50
2022-12-27T11:34:28.499Z,6.50
2022-12-27T11:37:28.556Z,6.40
2022-12-27T11:40:31.102Z,6.50
2022-12-27T11:43:17.767Z,6.50
2022-12-27T11:46:24.923Z,6.50
2022-12-27T11:49:41.875Z,6.50
2022-12-27T11:53:18.116Z,6.50
2022-12-27T11:56:23.955Z,6.50
2022-12-27T11:59:39.356Z,6.50
2022-12-27T12:03:00.319Z,6.50
2022-12-27T12:06:34.439Z,6.40
2022-12-27T12:09:49.578Z,6.50
2022-12-27T12:13:33.459Z,6.50
2022-12-27T12:17:08.383Z,6.50
2022-12-27T12:20:17.376Z,6.40
2022-12-27T12:24:01.425Z,6.40
2022-12-27T12:27:10.602Z,6.40
2022-12-27T12:30:39.589Z,6.40
2022-12-27T12:34:54.094Z,6.40
2022-12-27T12:38:05.551Z,6.40
2022-12-27T12:41:05.739Z,6.30
2022-12-27T12:44:51.352Z,6.30
2022-12-27T12:48:18.250Z,6.40
2022-12-27T12:51:24.154Z,6.30
2022-12-27T12:55:22.945Z,6.40
2022-12-27T12:58:55.411Z,6.30
2022-12-27T13:02:36.635Z,6.30
2022-12-27T13:05:50.104Z,6.30
2022-12-27T13:09:32.016Z,6.30
2022-12-27T13:12:57.194Z,6.20
2022-12-27T13:16:27.496Z,6.20
2022-12-27T13:19:50.173Z,6.20
2022-12-27T13:23:21.723Z,6.20
2022-12-27T13:27:07.355Z,6.20
2022-12-27T13:30:22.717Z,6.20
2022-12-27T13:33:18.481Z,6.10
2022-12-27T13:36:39.467Z,6.20
2022-12-27T13:40:30.063Z,6.10
2022-12-27T13:44:15.818Z,6.20
2022-12-27T13:48:17.051Z,6.20
2022-12-27T13:51:42.784Z,6.10
2022-12-27T13:55:05.471Z,6.10
2022-12-27T13:58:17.302Z,6.10
2022-12-27T14:01:29.674Z,6.10
2022-12-27T14:05:02.902Z,6.10
2022-12-27T14:08:31.993Z,6.00
2022-12-27T14:12:02.918Z,6.10
2022-12-27T14:14:49.422Z,6.10
2022-12-27T14:18:14.955Z,6.10
2022-12-27T14:21:42.713Z,6.10
2022-12-27T14:24:55.761Z,6.20
2022-12-27T14:28:26.546Z,6.20
2022-12-27T14:32:05.558Z,6.20
2022-12-27T14:35:53.135Z,6.10
2022-12-27T14:39:18.734Z,6.20
2022-12-27T14:42:53.626Z,6.10
2022-12-27T14:46:13.264Z,6.10
2022-12-27T14:49:47.402Z,6.10
2022-12-27T14:53:35.172Z,6.00
2022-12-27T14:56:33.368Z,6.00
2022-12-27T15:00:19.872Z,6.00
2022-12-27T15:03:41.669Z,6.00
2022-12-27T15:06:51.446Z,6.00
2022-12-27T15:10:06.244Z,6.00
2022-12-27T15:13:20.944Z,5.90
2022-12-27T15:16:24.839Z,5.90
2022-12-27T15:19:36.523Z,5.80
2022-12-27T15:23:14.640Z,5.80
2022-12-27T15:26:33.218Z,5.70
2022-12-27T15:29:52.258Z,5.70
2022-12-27T15:33:17.454Z,5.60
2022-12-27T15:36:19.743Z,5.50
2022-12-27T15:39:06.743Z,5.50
2022-12-27T15:42:48.145Z,5.40
2022-12-27T15:46:35.753Z,5.30
2022-12-27T15:50:28.094Z,5.20
2022-12-27T15:54:12.640Z,5.10
2022-12-27T15:57:34.196Z,5.00
2022-12-27T16:00:34.297Z,4.90
2022-12-27T16:03:38.816Z,4.70
2022-12-27T16:06:33.668Z,4.60
2022-12-27T16:09:25.130Z,4.50
2022-12-27T16:12:38.353Z,4.50
2022-12-27T16:15:45.309Z,4.40
2022-12-27T16:18:30.771Z,4.30
2022-12-27T16:21:24.184Z,4.20
2022-12-27T16:24:23.152Z,4.20
2022-12-27T16:27:29.789Z,4.10
2022-12-27T16:31:00.123Z,4.00
2022-12-27T16:33:46.058Z,4.00
2022-12-27T16:36:35.488Z,3.90
2022-12-27T16:40:25.782Z,3.90
2022-12-27T16:43:11.345Z,3.90
2022-12-27T16:46:18.906Z,3.80
2022-12-27T16:49:44.291Z,3.80
2022-12-27T16:53:08.033Z,3.70
2022-12-27T16:56:03.704Z,3.70
2022-12-27T16:58:50.033Z,3.60
2022-12-27T17:01:36.041Z,3.60
2022-12-27T17:04:52.406Z,3.60
2022-12-27T17:08:09.881Z,3.60
2022-12-27T17:11:26.878Z,3.60
2022-12-27T17:14:35.233Z,3.50
2022-12-27T17:17:22.657Z,3.50
2022-12-27T17:20:17.163Z,3.50
2022-12-27T17:23:04.699Z,3.50
2022-12-27T17:26:37.998Z,3.40
2022-12-27T17:30:14.629Z,3.40
2022-12-27T17:33:21.469Z,3.30
2022-12-27T17:37:19.662Z,3.30
2022-12-27T17:40:41.797Z,3.30
2022-12-27T17:44:05.411Z,3.30
2022-12-27T17:48:01.395Z,3.30
2022-12-27T17:50:47.162Z,3.30
2022-12-27T17:53:32.929Z,3.30
2022-12-27T17:56:23.680Z,3.20
2022-12-27T17:59:12.201Z,3.20
2022-12-27T18:02:35.809Z,3.30
2022-12-27T18:05:31.296Z,3.20
2022-12-27T18:08:31.391Z,3.20
2022-12-27T18:11:17.163Z,3.20
2022-12-27T18:14:03.114Z,3.20
2022-12-27T18:16:48.655Z,3.10
2022-12-27T18:19:34.248Z,3.10
2022-12-27T18:22:20.751Z,3.10
2022-12-27T18:25:33.333Z,3.10
2022-12-27T18:28:30.451Z,3.10
2022-12-27T18:31:50.619Z,3.10
2022-12-27T18:34:45.431Z,3.10
2022-12-27T18:37:31.175Z,3.10
2022-12-27T18:40:24.212Z,3.10
2022-12-27T18:43:15.315Z,3.10
2022-12-27T18:46:03.645Z,3.10
2022-12-27T18:48:49.464Z,3.10
2022-12-27T18:51:38.543Z,3.00
2022-12-27T18:54:33.852Z,3.00
2022-12-27T18:57:37.532Z,3.00
2022-12-27T19:00:26.207Z,3.00
2022-12-27T19:03:17.355Z,3.00
2022-12-27T19:06:11.556Z,3.00
2022-12-27T19:08:56.987Z,3.00
2022-12-27T19:12:00.295Z,3.00
2022-12-27T19:14:46.990Z,3.00
2022-12-27T19:17:32.913Z,3.00
2022-12-27T19:20:30.663Z,3.00
2022-12-27T19:23:33.720Z,3.00
2022-12-27T19:26:30.908Z,2.90
2022-12-27T19:29:24.673Z,3.00
2022-12-27T19:32:10.861Z,2.90
2022-12-27T19:35:01.434Z,3.00
2022-12-27T19:37:46.779Z,2.90
2022-12-27T19:40:32.547Z,2.90
2022-12-27T19:43:19.314Z,2.90
2022-12-27T19:46:11.893Z,2.90
2022-12-27T19:52:02.984Z,2.90
2022-12-27T19:54:51.225Z,2.90
